Time;durP1;ratioP1;P1;durP2;ratioP2;P2;SDS_P1;SDS_P2;PMS_P1;PMS_P2;Temp;Humidity;BMP_temperature;BMP_pressure;BME280_temperature;BME280_humidity;BME280_pressure;Samples;Min_cycle;Max_cycle;Signal;HPM_P1;HPM_P2
2023/01/13 00:01:23;;;;;;;3.05;0.82;;;10.80;92.00;;;;;;5136149;28;20032;-74
2023/01/13 00:03:49;;;;;;;5.30;0.90;;;10.70;91.90;;;;;;5136170;28;20031;-74
2023/01/13 00:06:19;;;;;;;7.93;1.00;;;10.70;91.80;;;;;;5135960;28;20030;-74
2023/01/13 00:08:48;;;;;;;2.97;0.70;;;10.70;92.00;;;;;;5136030;28;20018;-74
2023/01/13 00:11:13;;;;;;;3.15;1.13;;;10.70;91.60;;;;;;5136896;28;20022;-74
2023/01/13 00:13:39;;;;;;;6.55;1.00;;;10.60;91.40;;;;;;5135866;28;20020;-74
2023/01/13 00:16:09;;;;;;;3.85;1.05;;;10.60;91.40;;;;;;5136804;28;20031;-74
2023/01/13 00:18:35;;;;;;;7.72;1.50;;;10.60;91.50;;;;;;5136793;28;20049;-74
2023/01/13 00:21:03;;;;;;;7.47;1.77;;;10.60;91.40;;;;;;5118788;28;20016;-74
2023/01/13 00:23:31;;;;;;;5.63;1.52;;;10.60;91.40;;;;;;5135375;28;20035;-74
2023/01/13 00:25:58;;;;;;;4.70;0.93;;;10.60;91.50;;;;;;5135595;28;20020;-74
2023/01/13 00:28:24;;;;;;;5.32;1.50;;;10.50;91.50;;;;;;5135710;28;20023;-74
2023/01/13 00:30:50;;;;;;;10.05;1.10;;;10.50;91.40;;;;;;5118623;28;20247;-74
2023/01/13 00:33:16;;;;;;;6.30;1.23;;;10.50;91.30;;;;;;5136544;28;20044;-74
2023/01/13 00:35:41;;;;;;;7.20;1.00;;;10.50;91.50;;;;;;5101637;28;20083;-74
2023/01/13 00:38:07;;;;;;;6.70;1.38;;;10.50;91.30;;;;;;5118493;28;20032;-74
2023/01/13 00:40:32;;;;;;;7.55;1.13;;;10.50;91.00;;;;;;5135117;28;20056;-74
2023/01/13 00:45:43;;;;;;;9.35;1.70;;;10.40;91.00;;;;;;5136511;28;20043;-74
2023/01/13 00:48:09;;;;;;;11.15;1.35;;;10.30;90.90;;;;;;5136256;28;20057;-74
2023/01/13 00:50:34;;;;;;;6.20;1.48;;;10.30;91.10;;;;;;5118256;28;20079;-74
2023/01/13 00:53:00;;;;;;;8.68;1.23;;;10.30;90.90;;;;;;5118220;28;20016;-74
2023/01/13 00:55:26;;;;;;;5.93;1.15;;;10.20;90.90;;;;;;5135022;28;20032;-74
2023/01/13 00:57:52;;;;;;;6.15;1.50;;;10.20;90.40;;;;;;5135107;28;20027;-74
2023/01/13 01:00:18;;;;;;;5.50;2.22;;;10.20;90.70;;;;;;5118029;28;20039;-75
2023/01/13 01:02:43;;;;;;;4.32;0.73;;;10.30;90.30;;;;;;5101212;28;20028;-74
2023/01/13 01:05:09;;;;;;;6.13;1.45;;;10.30;90.10;;;;;;5135866;28;20027;-74
2023/01/13 01:07:35;;;;;;;5.55;1.13;;;10.20;90.10;;;;;;5135665;28;20110;-74
2023/01/13 01:10:01;;;;;;;5.05;1.52;;;10.20;89.70;;;;;;5117674;28;20024;-74
2023/01/13 01:12:26;;;;;;;6.20;1.10;;;10.20;89.80;;;;;;5117677;28;20035;-74
2023/01/13 01:14:52;;;;;;;6.70;1.30;;;10.10;90.00;;;;;;5135627;28;20032;-74
2023/01/13 01:17:18;;;;;;;6.38;0.98;;;10.10;90.00;;;;;;5100752;28;20035;-74
2023/01/13 01:19:43;;;;;;;6.97;1.20;;;10.00;89.80;;;;;;5117510;28;20051;-75
2023/01/13 01:22:09;;;;;;;7.78;1.55;;;10.00;90.20;;;;;;5135521;28;20024;-74
2023/01/13 01:24:34;;;;;;;7.18;1.33;;;10.10;90.20;;;;;;5134555;28;20530;-74
2023/01/13 01:27:00;;;;;;;3.78;1.20;;;10.10;90.30;;;;;;5135365;28;20036;-74
2023/01/13 01:29:26;;;;;;;12.20;1.63;;;10.10;90.30;;;;;;5134446;28;20058;-74
2023/01/13 01:31:51;;;;;;;9.13;1.48;;;10.20;90.20;;;;;;5117330;28;20119;-74
2023/01/13 01:34:17;;;;;;;12.68;1.55;;;10.10;90.20;;;;;;5117347;28;20083;-74
2023/01/13 01:36:43;;;;;;;8.70;1.63;;;10.10;90.30;;;;;;5116537;28;20027;-74
2023/01/13 01:39:08;;;;;;;10.15;1.75;;;10.20;90.20;;;;;;5116932;28;20036;-75
2023/01/13 01:41:35;;;;;;;7.18;0.95;;;10.20;90.20;;;;;;5134101;28;20032;-74
2023/01/13 01:44:27;;;;;;;21.20;2.47;;;10.20;90.30;;;;;;5100289;28;20054;-75
2023/01/13 01:46:53;;;;;;;6.85;1.00;;;10.10;90.40;;;;;;5133829;28;20027;-74
2023/01/13 01:49:29;;;;;;;8.82;1.55;;;10.10;90.40;;;;;;5135009;28;20045;-74
2023/01/13 01:51:58;;;;;;;7.45;1.17;;;10.10;90.30;;;;;;5134195;28;20019;-75
2023/01/13 01:54:30;;;;;;;7.30;1.92;;;10.10;90.40;;;;;;5134895;28;20016;-74
2023/01/13 01:56:56;;;;;;;12.40;1.27;;;10.10;90.40;;;;;;5133935;28;20031;-74
2023/01/13 01:59:24;;;;;;;8.70;1.55;;;10.00;90.50;;;;;;5116942;28;20028;-74
2023/01/13 02:01:50;;;;;;;11.88;1.27;;;10.00;90.60;;;;;;5133808;28;20197;-75
2023/01/13 02:04:24;;;;;;;6.65;1.35;;;10.00;90.50;;;;;;5133765;28;20035;-74
2023/01/13 02:06:51;;;;;;;6.75;1.33;;;10.00;90.40;;;;;;5133638;28;20020;-74
2023/01/13 02:09:17;;;;;;;5.82;1.92;;;9.90;90.20;;;;;;5133637;28;20076;-75
2023/01/13 02:14:29;;;;;;;7.95;1.50;;;9.90;90.20;;;;;;5134688;28;20053;-75
2023/01/13 02:17:19;;;;;;;9.93;1.48;;;9.90;90.00;;;;;;5133449;28;20015;-74
2023/01/13 02:19:54;;;;;;;10.57;1.77;;;9.80;90.20;;;;;;5134483;28;20066;-74
2023/01/13 02:22:51;;;;;;;11.38;1.48;;;9.80;90.00;;;;;;5134393;28;20027;-74
2023/01/13 02:25:38;;;;;;;11.93;1.95;;;9.80;88.90;;;;;;5128398;28;20046;-74
2023/01/13 02:28:25;;;;;;;12.15;1.73;;;9.80;89.00;;;;;;5134243;28;20049;-74
2023/01/13 02:34:11;;;;;;;11.57;1.70;;;9.80;88.00;;;;;;5134432;28;20057;-74
2023/01/13 02:36:57;;;;;;;8.30;1.67;;;9.80;87.80;;;;;;5129491;28;20044;-74
2023/01/13 02:39:31;;;;;;;10.70;1.85;;;9.70;87.50;;;;;;5133037;28;20050;-74
2023/01/13 02:44:53;;;;;;;9.27;2.03;;;9.80;87.20;;;;;;5134182;28;20031;-75
2023/01/13 02:47:25;;;;;;;11.93;2.42;;;9.70;87.20;;;;;;5134069;28;20043;-74
2023/01/13 02:49:58;;;;;;;13.63;2.42;;;9.70;86.20;;;;;;5133030;28;20047;-74
2023/01/13 02:52:42;;;;;;;7.45;1.70;;;9.60;86.10;;;;;;5133090;28;20087;-75
2023/01/13 02:55:16;;;;;;;11.32;1.95;;;9.60;86.00;;;;;;5133024;28;20050;-74
2023/01/13 02:57:43;;;;;;;8.02;1.40;;;9.60;86.90;;;;;;5134024;28;20024;-75
2023/01/13 03:00:11;;;;;;;15.02;2.58;;;9.50;87.80;;;;;;5133902;28;20043;-74
2023/01/13 03:02:37;;;;;;;7.13;1.50;;;9.60;87.10;;;;;;5132894;28;20027;-74
2023/01/13 03:05:04;;;;;;;9.95;2.05;;;9.60;87.30;;;;;;5132945;28;20030;-74
2023/01/13 03:07:52;;;;;;;11.13;1.50;;;9.50;87.60;;;;;;5115922;28;20153;-75
2023/01/13 03:10:32;;;;;;;8.85;1.60;;;9.50;87.30;;;;;;5133908;28;20043;-75
2023/01/13 03:13:19;;;;;;;7.80;2.05;;;9.60;88.00;;;;;;5133865;28;20020;-74
2023/01/13 03:15:51;;;;;;;10.70;1.98;;;9.60;88.10;;;;;;5133810;28;20023;-74
2023/01/13 03:18:22;;;;;;;6.65;1.63;;;9.50;88.20;;;;;;5132865;28;20029;-74
2023/01/13 03:21:14;;;;;;;10.82;1.25;;;9.50;88.40;;;;;;5132711;28;20101;-74
2023/01/13 03:23:58;;;;;;;7.90;1.95;;;9.50;88.50;;;;;;5133769;28;20030;-74
2023/01/13 03:26:29;;;;;;;9.32;2.40;;;9.50;90.00;;;;;;5132638;28;20087;-74
2023/01/13 03:29:24;;;;;;;8.00;2.00;;;9.50;89.10;;;;;;5133693;28;20022;-75
2023/01/13 03:32:01;;;;;;;8.18;1.63;;;9.50;89.40;;;;;;5131746;28;20036;-74
2023/01/13 03:34:37;;;;;;;6.82;1.55;;;9.50;89.10;;;;;;5132648;28;20022;-74
2023/01/13 03:37:05;;;;;;;14.73;2.03;;;9.50;89.30;;;;;;5132625;28;20020;-74
2023/01/13 03:39:35;;;;;;;8.75;1.38;;;9.50;88.90;;;;;;5133300;28;20056;-74
2023/01/13 03:42:07;;;;;;;10.52;1.88;;;9.50;89.00;;;;;;5132532;28;20020;-74
2023/01/13 03:45:02;;;;;;;;;;;9.50;89.30;;;;;;5132954;28;20458;-74
2023/01/13 03:47:53;;;;;;;7.07;1.27;;;9.40;88.60;;;;;;5115643;28;19915;-74
2023/01/13 03:50:40;;;;;;;7.28;1.50;;;9.50;88.40;;;;;;5132602;28;20026;-74
2023/01/13 03:53:14;;;;;;;5.25;1.33;;;9.50;88.30;;;;;;5132528;28;20019;-74
2023/01/13 03:55:46;;;;;;;9.25;2.28;;;9.60;88.00;;;;;;5133647;28;20023;-74
2023/01/13 03:58:26;;;;;;;11.73;1.67;;;9.60;88.00;;;;;;5133531;28;20035;-74
2023/01/13 04:01:24;;;;;;;7.55;1.58;;;9.60;87.40;;;;;;5137194;28;20503;-74
2023/01/13 04:04:11;;;;;;;8.15;0.70;;;9.60;86.00;;;;;;5049602;28;20093;-75
2023/01/13 04:07:09;;;;;;;10.32;1.38;;;9.60;86.00;;;;;;5136937;28;20031;-74
2023/01/13 04:09:37;;;;;;;6.35;0.98;;;9.70;84.70;;;;;;5101687;28;20039;-74
2023/01/13 04:12:13;;;;;;;7.45;1.52;;;9.70;84.40;;;;;;5135879;28;20024;-74
2023/01/13 04:14:39;;;;;;;2.95;0.70;;;9.70;83.90;;;;;;5136966;28;20015;-74
2023/01/13 04:17:05;;;;;;;4.28;0.65;;;9.80;83.40;;;;;;5136848;28;20027;-74
2023/01/13 04:19:31;;;;;;;4.38;0.70;;;9.80;82.20;;;;;;5136757;28;20023;-74
2023/01/13 04:21:58;;;;;;;2.42;0.45;;;9.80;81.80;;;;;;5136778;28;20083;-74
2023/01/13 04:24:24;;;;;;;5.63;0.63;;;9.80;82.00;;;;;;5118801;28;20032;-74
2023/01/13 04:26:50;;;;;;;2.53;0.45;;;9.80;81.20;;;;;;5136744;28;20028;-74
2023/01/13 04:29:15;;;;;;;3.30;0.60;;;9.90;81.30;;;;;;5135804;28;20016;-74
2023/01/13 04:31:41;;;;;;;3.25;0.68;;;9.90;81.50;;;;;;5135524;28;20036;-74
2023/01/13 04:34:08;;;;;;;2.92;0.30;;;9.90;80.80;;;;;;5136519;27;20024;-74
2023/01/13 04:36:34;;;;;;;3.67;0.40;;;9.90;80.70;;;;;;5135531;28;20028;-75
2023/01/13 04:39:00;;;;;;;4.88;1.13;;;9.80;81.80;;;;;;5118253;28;20061;-75
2023/01/13 04:41:26;;;;;;;3.75;0.45;;;9.90;82.30;;;;;;5135559;28;20420;-74
2023/01/13 04:43:51;;;;;;;4.60;0.90;;;9.80;82.10;;;;;;5101461;28;20031;-74
2023/01/13 04:46:17;;;;;;;0.63;0.30;;;9.80;82.70;;;;;;5118205;28;20023;-74
2023/01/13 04:48:42;;;;;;;3.88;0.40;;;9.70;83.10;;;;;;5135355;28;20024;-74
2023/01/13 04:51:08;;;;;;;4.50;1.00;;;9.70;84.20;;;;;;5118162;28;20031;-74
2023/01/13 04:53:34;;;;;;;4.38;0.63;;;9.60;84.60;;;;;;5101283;28;20034;-74
2023/01/13 04:55:59;;;;;;;1.63;0.30;;;9.70;85.20;;;;;;5135156;28;20031;-74
2023/01/13 04:58:25;;;;;;;6.45;1.10;;;9.60;85.80;;;;;;5118066;28;20034;-74
2023/01/13 05:00:50;;;;;;;3.70;0.73;;;9.60;86.50;;;;;;5117935;28;20040;-75
2023/01/13 05:03:17;;;;;;;2.83;0.70;;;9.60;86.80;;;;;;5117968;28;20024;-74
2023/01/13 05:05:43;;;;;;;3.10;0.90;;;9.60;87.00;;;;;;5135918;28;20020;-74
2023/01/13 05:08:09;;;;;;;7.20;1.17;;;9.60;87.50;;;;;;5134666;28;20031;-74
2023/01/13 05:10:34;;;;;;;2.90;0.90;;;9.50;87.70;;;;;;5133648;28;20023;-74
2023/01/13 05:18:29;;;;;;;6.07;1.15;;;9.40;88.60;;;;;;5135865;28;20490;-74
2023/01/13 05:20:55;;;;;;;5.50;1.10;;;9.40;89.10;;;;;;5134687;28;20023;-74
2023/01/13 05:26:05;;;;;;;6.28;0.93;;;9.30;89.50;;;;;;5135652;28;20150;-75
2023/01/13 05:28:32;;;;;;;6.30;1.17;;;9.30;89.20;;;;;;5135463;28;20028;-74
2023/01/13 05:30:58;;;;;;;6.72;1.10;;;9.30;89.20;;;;;;5134458;28;20051;-74
2023/01/13 05:33:23;;;;;;;6.35;1.30;;;9.30;89.30;;;;;;5134343;28;20016;-74
2023/01/13 05:35:49;;;;;;;4.82;1.20;;;9.30;89.40;;;;;;5117279;28;20116;-75
2023/01/13 05:38:16;;;;;;;3.58;0.95;;;9.20;90.20;;;;;;5117379;28;20095;-74
2023/01/13 05:43:27;;;;;;;5.97;1.40;;;9.30;89.90;;;;;;5135416;28;20058;-74
2023/01/13 05:46:01;;;;;;;4.93;1.25;;;9.30;89.40;;;;;;5117040;28;20032;-74
2023/01/13 05:48:26;;;;;;;6.03;1.50;;;9.30;89.20;;;;;;5134968;28;20494;-74
2023/01/13 05:50:53;;;;;;;4.78;0.98;;;9.30;89.40;;;;;;5134973;28;20023;-74
2023/01/13 05:53:19;;;;;;;7.07;1.20;;;9.30;89.30;;;;;;5134989;28;20084;-75
2023/01/13 05:55:45;;;;;;;8.70;1.15;;;9.40;89.60;;;;;;5133845;28;20012;-75
2023/01/13 05:58:13;;;;;;;8.75;1.13;;;9.40;89.20;;;;;;5116890;28;20041;-75
2023/01/13 06:00:39;;;;;;;8.43;1.38;;;9.40;88.70;;;;;;5133874;28;20047;-74
2023/01/13 06:03:05;;;;;;;9.80;1.60;;;9.40;88.80;;;;;;5133900;28;20031;-74
2023/01/13 06:05:31;;;;;;;8.75;1.00;;;9.40;88.10;;;;;;5134714;28;20039;-74
2023/01/13 06:07:58;;;;;;;4.60;0.90;;;9.40;89.00;;;;;;5099724;28;20028;-74
2023/01/13 06:10:25;;;;;;;3.13;0.80;;;9.40;88.40;;;;;;5133759;28;20075;-75
2023/01/13 06:12:51;;;;;;;5.55;0.80;;;9.40;88.40;;;;;;5133571;28;20081;-73
2023/01/13 06:15:17;;;;;;;7.13;1.15;;;9.40;88.20;;;;;;5134537;28;20032;-73
2023/01/13 06:17:43;;;;;;;5.72;1.30;;;9.40;87.80;;;;;;5133532;28;20091;-74
2023/01/13 06:20:10;;;;;;;7.85;1.63;;;9.40;87.90;;;;;;5133427;28;20027;-74
2023/01/13 06:22:38;;;;;;;9.05;1.48;;;9.30;87.90;;;;;;5116376;28;20024;-74
2023/01/13 06:25:29;;;;;;;5.03;1.10;;;9.30;88.10;;;;;;5134229;28;20034;-74
2023/01/13 06:27:57;;;;;;;7.30;1.15;;;9.30;87.90;;;;;;5132738;28;20046;-74
2023/01/13 06:30:24;;;;;;;3.08;0.70;;;9.20;88.30;;;;;;5134301;28;20051;-75
2023/01/13 06:32:57;;;;;;;5.50;1.42;;;9.20;88.40;;;;;;5116210;28;20367;-74
2023/01/13 06:35:25;;;;;;;;;;;9.20;88.40;;;;;;5133649;28;20019;-75
2023/01/13 06:37:54;;;;;;;13.38;1.27;;;9.10;88.10;;;;;;5132949;28;19904;-74
2023/01/13 06:40:20;;;;;;;9.82;1.10;;;9.10;88.40;;;;;;5133890;28;20047;-74
2023/01/13 06:45:30;;;;;;;4.38;0.88;;;9.00;88.10;;;;;;5134295;28;20061;-75
2023/01/13 06:47:58;;;;;;;9.50;1.70;;;9.00;88.00;;;;;;5133163;28;20031;-74
2023/01/13 06:50:24;;;;;;;5.82;1.63;;;9.00;88.00;;;;;;5134051;28;20024;-74
2023/01/13 06:52:50;;;;;;;5.45;0.95;;;9.00;87.90;;;;;;5134041;28;20023;-74
2023/01/13 06:55:16;;;;;;;4.45;1.13;;;9.00;88.00;;;;;;5133958;28;20039;-75
2023/01/13 06:57:53;;;;;;;4.93;1.02;;;9.00;88.00;;;;;;5115934;28;20024;-74
2023/01/13 07:00:20;;;;;;;10.10;1.05;;;9.00;88.00;;;;;;5133997;28;20023;-74
2023/01/13 07:02:46;;;;;;;5.40;1.10;;;9.00;87.60;;;;;;5115971;28;20095;-74
2023/01/13 07:05:12;;;;;;;4.80;0.80;;;8.90;87.80;;;;;;5116006;28;20028;-74
2023/01/13 07:07:38;;;;;;;4.90;1.10;;;8.90;87.50;;;;;;5132701;28;20028;-74
2023/01/13 07:10:04;;;;;;;6.22;1.33;;;8.90;87.50;;;;;;5133982;28;20023;-74
2023/01/13 07:12:30;;;;;;;6.07;1.00;;;8.90;87.30;;;;;;5133960;28;20027;-74
2023/01/13 07:17:40;;;;;;;13.45;1.52;;;9.00;86.90;;;;;;5133913;28;20047;-74
2023/01/13 07:20:06;;;;;;;11.52;1.73;;;8.90;86.70;;;;;;5133733;28;20031;-74
2023/01/13 07:22:31;;;;;;;6.80;2.22;;;8.90;87.00;;;;;;5132729;28;20046;-75
2023/01/13 07:24:57;;;;;;;7.20;1.52;;;8.90;86.80;;;;;;5115667;28;20032;-74
2023/01/13 07:27:23;;;;;;;7.22;0.95;;;8.90;86.40;;;;;;5132675;28;20024;-74
2023/01/13 07:29:48;;;;;;;9.88;1.48;;;9.00;86.40;;;;;;5098749;28;20444;-74
2023/01/13 07:32:14;;;;;;;5.85;0.95;;;9.00;86.30;;;;;;5133630;28;20027;-74
2023/01/13 07:34:40;;;;;;;6.95;1.05;;;9.00;85.60;;;;;;5136273;28;20019;-75
2023/01/13 07:37:05;;;;;;;6.88;1.55;;;9.00;85.60;;;;;;5119553;28;20076;-74
2023/01/13 07:39:31;;;;;;;8.80;1.42;;;9.00;85.30;;;;;;5119170;28;20048;-74
2023/01/13 07:44:40;;;;;;;3.40;1.10;;;9.00;85.40;;;;;;5137003;28;20039;-74
2023/01/13 07:47:09;;;;;;;6.78;1.38;;;9.00;85.20;;;;;;5136418;28;20032;-74
2023/01/13 07:49:34;;;;;;;10.00;1.20;;;9.00;85.40;;;;;;5136477;28;20020;-74
2023/01/13 07:52:00;;;;;;;7.50;1.20;;;9.00;85.30;;;;;;5137400;28;20023;-74
2023/01/13 07:54:26;;;;;;;8.60;1.45;;;9.10;84.90;;;;;;5119271;28;20060;-74
2023/01/13 07:56:51;;;;;;;8.73;1.25;;;9.00;86.00;;;;;;5119175;28;20098;-74
2023/01/13 07:59:17;;;;;;;9.27;1.08;;;9.00;84.90;;;;;;5137298;28;20038;-73
2023/01/13 08:01:43;;;;;;;5.03;1.35;;;9.00;84.90;;;;;;5119212;28;20028;-74
2023/01/13 08:04:08;;;;;;;13.77;1.60;;;9.00;84.80;;;;;;5119054;28;20038;-74
2023/01/13 08:06:35;;;;;;;3.47;0.88;;;8.90;84.10;;;;;;5102139;28;20035;-75
2023/01/13 08:09:01;;;;;;;8.15;1.65;;;9.00;84.50;;;;;;5136038;28;20023;-75
2023/01/13 08:11:26;;;;;;;9.40;1.27;;;8.90;84.50;;;;;;5136085;28;20023;-74
2023/01/13 08:13:56;;;;;;;2.72;0.82;;;9.00;84.40;;;;;;5118892;28;20039;-74
2023/01/13 08:16:22;;;;;;;5.07;1.30;;;9.00;84.20;;;;;;5135917;28;20020;-74
2023/01/13 08:18:48;;;;;;;14.43;1.73;;;9.00;84.10;;;;;;5136850;28;20034;-75
2023/01/13 08:21:14;;;;;;;5.85;1.00;;;9.00;83.80;;;;;;5118724;28;20028;-74
2023/01/13 08:23:41;;;;;;;6.72;1.00;;;9.00;83.70;;;;;;5118812;28;20019;-74
2023/01/13 08:26:09;;;;;;;6.00;1.10;;;9.00;83.80;;;;;;5135802;28;20020;-74
2023/01/13 08:28:36;;;;;;;17.52;1.48;;;9.00;84.10;;;;;;5135623;28;20034;-75
2023/01/13 08:31:04;;;;;;;8.80;1.55;;;9.00;83.80;;;;;;5135552;28;20020;-74
2023/01/13 08:33:30;;;;;;;9.23;1.65;;;9.00;84.00;;;;;;5135627;28;20015;-74
2023/01/13 08:35:56;;;;;;;9.95;2.00;;;9.20;84.10;;;;;;5135483;28;20027;-74
2023/01/13 08:38:22;;;;;;;6.63;1.58;;;9.20;83.50;;;;;;5136467;28;20031;-75
2023/01/13 08:40:48;;;;;;;9.45;1.52;;;9.30;83.60;;;;;;5118131;28;20077;-74
2023/01/13 08:43:14;;;;;;;5.10;0.80;;;9.30;83.40;;;;;;5101619;28;20020;-74
2023/01/13 08:45:39;;;;;;;7.47;1.25;;;9.30;83.20;;;;;;5118079;28;20027;-74
2023/01/13 08:48:05;;;;;;;12.68;2.08;;;9.40;83.20;;;;;;5135294;28;20053;-75
2023/01/13 08:50:30;;;;;;;3.65;1.05;;;9.40;83.80;;;;;;5118268;28;20028;-74
2023/01/13 08:52:56;;;;;;;3.83;0.77;;;9.50;83.50;;;;;;5135148;28;20035;-73
2023/01/13 08:55:22;;;;;;;9.35;1.50;;;9.50;83.70;;;;;;5118107;28;20024;-74
2023/01/13 08:57:47;;;;;;;9.90;1.50;;;9.60;83.20;;;;;;5135166;28;20055;-74
2023/01/13 09:00:14;;;;;;;8.18;1.30;;;9.70;83.10;;;;;;5117996;28;20035;-74
2023/01/13 09:02:39;;;;;;;6.07;1.25;;;9.80;82.30;;;;;;5136024;28;20044;-74
2023/01/13 09:05:06;;;;;;;9.75;2.25;;;9.90;82.40;;;;;;5135906;28;20035;-74
2023/01/13 09:07:34;;;;;;;9.35;1.48;;;10.00;81.80;;;;;;5134766;28;20060;-74
2023/01/13 09:10:00;;;;;;;3.63;0.85;;;10.20;81.50;;;;;;5135889;28;20019;-74
2023/01/13 09:15:12;;;;;;;9.07;1.25;;;10.40;80.50;;;;;;5135884;28;20041;-74
2023/01/13 09:17:38;;;;;;;11.30;1.67;;;10.60;79.80;;;;;;5135693;28;20032;-74
2023/01/13 09:20:04;;;;;;;10.25;1.67;;;10.80;79.20;;;;;;5134699;28;20083;-74
2023/01/13 09:22:30;;;;;;;7.22;1.17;;;10.80;78.10;;;;;;5117675;28;20087;-74
2023/01/13 09:24:56;;;;;;;9.32;1.67;;;10.80;77.90;;;;;;5100623;28;20020;-74
2023/01/13 09:27:22;;;;;;;9.63;1.52;;;10.80;77.30;;;;;;5134419;28;20044;-74
2023/01/13 09:29:48;;;;;;;11.70;1.35;;;10.90;78.40;;;;;;5135455;28;20016;-74
2023/01/13 09:32:14;;;;;;;6.78;1.40;;;10.80;77.70;;;;;;5134413;28;20020;-74
2023/01/13 09:34:58;;;;;;;9.77;2.03;;;10.60;79.30;;;;;;5135361;27;20023;-74
2023/01/13 09:37:29;;;;;;;10.75;1.00;;;10.40;79.90;;;;;;5134290;28;20490;-74
2023/01/13 09:39:55;;;;;;;10.93;1.50;;;10.30;80.60;;;;;;5134114;28;20047;-74
2023/01/13 09:45:31;;;;;;;10.05;1.50;;;10.30;80.80;;;;;;5135393;28;20043;-74
2023/01/13 09:48:15;;;;;;;8.80;2.08;;;10.30;80.80;;;;;;5134138;28;20459;-74
2023/01/13 09:50:56;;;;;;;6.78;1.33;;;10.10;81.80;;;;;;5134053;28;20015;-74
2023/01/13 09:53:27;;;;;;;10.73;1.97;;;10.00;81.80;;;;;;5134054;28;20027;-74
2023/01/13 09:55:53;;;;;;;12.50;2.05;;;9.90;82.40;;;;;;5134703;28;20028;-74
2023/01/13 09:58:19;;;;;;;16.83;2.28;;;9.90;83.20;;;;;;5134566;28;20031;-74
2023/01/13 10:01:00;;;;;;;9.80;1.73;;;9.80;82.80;;;;;;5116860;28;20038;-74
2023/01/13 10:03:28;;;;;;;6.72;1.63;;;9.80;82.90;;;;;;5134982;28;20102;-74
2023/01/13 10:06:11;;;;;;;12.73;2.63;;;9.80;82.60;;;;;;5134765;28;20024;-74
2023/01/13 10:08:39;;;;;;;7.22;1.70;;;9.80;83.20;;;;;;5134581;28;20028;-74
2023/01/13 10:14:09;;;;;;;8.93;2.42;;;9.90;83.10;;;;;;5134889;28;20035;-75
2023/01/13 10:16:40;;;;;;;13.55;2.67;;;9.80;83.40;;;;;;5133622;28;20060;-74
2023/01/13 10:19:19;;;;;;;7.73;1.73;;;9.90;83.40;;;;;;5134739;28;20015;-74
2023/01/13 10:22:09;;;;;;;8.45;1.70;;;9.90;84.00;;;;;;5133491;28;20023;-75
2023/01/13 10:25:03;;;;;;;9.82;2.03;;;9.80;85.00;;;;;;5134446;28;20024;-74
2023/01/13 10:27:38;;;;;;;7.93;1.00;;;9.80;85.10;;;;;;5134391;28;20024;-74
2023/01/13 10:30:14;;;;;;;10.50;1.65;;;9.70;85.70;;;;;;5133333;28;20024;-75
2023/01/13 10:32:45;;;;;;;9.32;1.67;;;9.70;86.70;;;;;;5134360;28;20020;-74
2023/01/13 10:35:11;;;;;;;11.38;1.65;;;9.70;87.50;;;;;;5134326;28;20098;-74
2023/01/13 10:37:37;;;;;;;10.98;1.88;;;9.70;87.80;;;;;;5116242;28;20031;-74
2023/01/13 10:40:03;;;;;;;9.27;1.95;;;9.60;88.50;;;;;;5133130;28;20111;-73
2023/01/13 10:42:29;;;;;;;16.45;2.13;;;9.60;89.10;;;;;;5134080;28;20024;-74
2023/01/13 10:44:56;;;;;;;7.70;1.80;;;9.50;89.50;;;;;;5133127;28;20117;-74
2023/01/13 10:47:22;;;;;;;12.02;2.03;;;9.50;89.50;;;;;;5132926;28;20072;-74
2023/01/13 10:50:23;;;;;;;11.55;2.15;;;9.50;89.60;;;;;;5134183;28;20020;-74
2023/01/13 10:53:13;;;;;;;15.77;2.85;;;9.40;90.10;;;;;;5119684;28;20170;-74
2023/01/13 10:55:40;;;;;;;8.63;2.10;;;9.40;90.20;;;;;;5133021;28;20028;-74
2023/01/13 10:58:13;;;;;;;12.38;2.20;;;9.40;90.40;;;;;;5132953;28;20028;-74
2023/01/13 11:00:39;;;;;;;9.52;1.60;;;9.40;90.60;;;;;;5133033;28;20034;-73
2023/01/13 11:03:16;;;;;;;6.50;1.85;;;9.40;90.90;;;;;;5133046;28;20028;-74
2023/01/13 11:05:57;;;;;;;15.70;2.45;;;9.40;91.00;;;;;;5133984;28;20023;-74
2023/01/13 11:08:29;;;;;;;8.98;2.10;;;9.30;91.10;;;;;;5134154;28;20028;-73
2023/01/13 11:10:58;;;;;;;7.28;2.13;;;9.30;91.00;;;;;;5137219;28;20020;-73
2023/01/13 11:13:34;;;;;;;3.28;1.40;;;9.30;91.00;;;;;;5120173;28;20053;-74
2023/01/13 11:16:06;;;;;;;12.73;1.65;;;9.30;91.30;;;;;;5138129;27;20095;-73
2023/01/13 11:19:00;;;;;;;9.93;2.00;;;9.30;91.40;;;;;;5138046;28;20079;-74
2023/01/13 11:21:38;;;;;;;10.80;1.92;;;9.30;91.00;;;;;;5138021;28;20087;-74
2023/01/13 11:24:17;;;;;;;9.68;2.28;;;9.30;91.10;;;;;;5137055;28;20027;-73
2023/01/13 11:26:57;;;;;;;8.50;2.20;;;9.30;91.10;;;;;;5136885;28;20015;-74
2023/01/13 11:29:28;;;;;;;7.57;1.83;;;9.30;91.20;;;;;;5137962;28;20093;-74
2023/01/13 11:32:06;;;;;;;10.60;1.60;;;9.30;90.70;;;;;;5136771;28;20020;-73
2023/01/13 11:34:35;;;;;;;8.70;2.05;;;9.20;90.70;;;;;;5136820;28;20023;-73
2023/01/13 11:37:08;;;;;;;8.90;1.83;;;9.30;91.20;;;;;;5137821;28;20087;-75
2023/01/13 11:39:48;;;;;;;12.27;2.35;;;9.30;90.90;;;;;;5136519;28;20023;-74
2023/01/13 11:42:56;;;;;;;11.27;2.80;;;9.30;90.90;;;;;;5137728;28;20028;-74
2023/01/13 11:45:27;;;;;;;8.27;2.03;;;9.30;90.60;;;;;;5092309;28;20039;-74
2023/01/13 11:47:57;;;;;;;9.48;2.50;;;9.40;90.50;;;;;;5136372;28;20028;-74
2023/01/13 11:50:50;;;;;;;7.50;1.73;;;9.50;90.40;;;;;;5137411;28;20012;-74
2023/01/13 11:53:54;;;;;;;;;;;9.60;90.30;;;;;;5136841;28;20019;-73
2023/01/13 11:57:00;;;;;;;16.33;2.03;;;9.70;90.10;;;;;;5037951;28;19905;-73
2023/01/13 11:59:34;;;;;;;10.50;1.95;;;9.80;88.50;;;;;;5054624;28;20028;-74
2023/01/13 12:02:06;;;;;;;13.40;1.67;;;9.90;89.30;;;;;;5119843;28;20034;-74
2023/01/13 12:04:50;;;;;;;3.80;1.10;;;9.90;88.40;;;;;;5136075;28;20081;-73
2023/01/13 12:07:18;;;;;;;10.48;1.90;;;10.00;88.20;;;;;;5135994;28;20056;-74
2023/01/13 12:09:44;;;;;;;12.18;1.80;;;10.00;87.60;;;;;;5135912;28;20075;-74
2023/01/13 12:12:21;;;;;;;9.13;1.73;;;10.10;87.50;;;;;;5136906;28;20023;-74
2023/01/13 12:15:05;;;;;;;6.93;1.60;;;10.10;87.00;;;;;;5136976;28;20012;-74
2023/01/13 12:17:41;;;;;;;7.85;1.70;;;10.10;87.30;;;;;;5137025;28;20382;-73
2023/01/13 12:20:35;;;;;;;15.50;3.45;;;10.00;86.40;;;;;;5136325;28;20023;-74
2023/01/13 12:23:05;;;;;;;7.93;1.90;;;10.00;86.90;;;;;;5136818;28;20031;-73
2023/01/13 12:25:45;;;;;;;12.73;2.00;;;10.00;86.40;;;;;;5136779;28;20035;-73
2023/01/13 12:28:41;;;;;;;8.70;1.65;;;10.00;87.60;;;;;;5135581;28;20057;-74
2023/01/13 12:31:08;;;;;;;10.93;2.20;;;10.00;88.60;;;;;;5119355;28;20111;-74
2023/01/13 12:34:14;;;;;;;9.82;1.77;;;9.90;89.10;;;;;;5135661;28;20050;-73
2023/01/13 12:36:46;;;;;;;11.00;2.35;;;9.90;89.50;;;;;;5135599;28;20028;-74
2023/01/13 12:39:14;;;;;;;11.88;2.17;;;9.90;89.40;;;;;;5136624;28;20043;-74
2023/01/13 12:44:27;;;;;;;10.50;1.83;;;9.80;89.20;;;;;;5136464;28;20034;-73
2023/01/13 12:46:55;;;;;;;9.38;2.72;;;9.80;89.20;;;;;;5135249;28;20032;-73
2023/01/13 12:49:23;;;;;;;10.93;1.50;;;9.80;89.30;;;;;;5118395;28;20020;-74
2023/01/13 12:51:54;;;;;;;5.22;1.05;;;9.70;88.70;;;;;;5135191;28;20023;-74
2023/01/13 12:54:29;;;;;;;13.47;2.33;;;9.60;87.40;;;;;;5135136;28;20076;-74
2023/01/13 12:56:58;;;;;;;7.93;2.80;;;9.60;87.70;;;;;;5136124;28;20039;-74
2023/01/13 12:59:24;;;;;;;12.13;2.05;;;9.70;87.70;;;;;;5118623;28;20034;-73
2023/01/13 13:02:10;;;;;;;13.20;3.20;;;9.70;87.40;;;;;;5134986;28;20122;-74
2023/01/13 13:04:51;;;;;;;14.50;3.72;;;9.70;87.10;;;;;;5134845;28;20028;-74
2023/01/13 13:07:29;;;;;;;13.02;1.77;;;9.60;87.30;;;;;;5135893;28;20509;-74
2023/01/13 13:10:28;;;;;;;11.48;2.03;;;9.70;87.50;;;;;;5134807;28;20023;-74
2023/01/13 13:13:17;;;;;;;7.95;2.70;;;9.70;87.50;;;;;;5130895;28;20040;-74
2023/01/13 13:15:50;;;;;;;6.88;1.90;;;9.70;87.40;;;;;;5134777;28;20031;-74
2023/01/13 13:18:15;;;;;;;6.18;1.42;;;9.70;87.10;;;;;;5101825;28;20099;-73
2023/01/13 13:21:08;;;;;;;9.85;1.83;;;9.70;85.90;;;;;;5134645;28;20048;-74
2023/01/13 13:23:38;;;;;;;11.25;1.83;;;9.80;87.40;;;;;;5135643;27;20019;-74
2023/01/13 13:26:25;;;;;;;10.98;2.33;;;9.90;86.70;;;;;;5134565;28;20015;-74
2023/01/13 13:29:22;;;;;;;9.27;1.40;;;9.90;86.50;;;;;;5134515;28;20027;-74
2023/01/13 13:31:51;;;;;;;9.10;1.75;;;9.90;86.00;;;;;;5133527;28;20016;-75
2023/01/13 13:34:23;;;;;;;5.20;1.15;;;10.00;85.80;;;;;;5134366;28;20032;-74
2023/01/13 13:37:07;;;;;;;9.07;2.50;;;10.00;84.50;;;;;;5134304;28;20027;-74
2023/01/13 13:48:01;;;;;;;8.35;1.75;;;10.00;84.00;;;;;;5135245;28;19914;-74
2023/01/13 13:50:32;;;;;;;4.05;1.75;;;10.00;84.30;;;;;;5134173;28;20024;-74
2023/01/13 13:53:04;;;;;;;6.97;1.70;;;10.00;83.90;;;;;;5134179;28;20024;-74
2023/01/13 13:55:30;;;;;;;6.43;1.08;;;10.00;83.90;;;;;;5135076;27;20022;-73
2023/01/13 13:57:57;;;;;;;8.75;2.53;;;10.00;83.10;;;;;;5133914;28;20027;-74
2023/01/13 14:00:30;;;;;;;12.05;1.85;;;10.00;83.90;;;;;;5117097;28;20046;-74
2023/01/13 14:02:57;;;;;;;9.43;2.42;;;10.00;83.40;;;;;;5133972;28;20023;-74
2023/01/13 14:05:34;;;;;;;16.58;4.18;;;10.00;83.30;;;;;;5133798;28;20023;-74